Ship Status Report: callsign AMOUK35

sailwx.info

Track history (hours):
 
Tides and Currents Weather Stations Pressure Air Temp Water Temp Dewpoint Dewpoint Depression Visibility Wind Speed Wind Dir Waves Ship Positions

Callsign AMOUK35 (name unknown)

Last reported at 2016-Feb-11 11:00 UTC. Time now 2016-Feb-11 13:02 UTC.
Position N 56°24' W 005°30'.

Barometer 1002.0 mb
Air temperature 4.1 ° C
Dewpoint 3.9 ° C

Date/timePositionNaut miles runAvg speedWind from/ knotsBaromVisibWave heightAir tempDewpointWater temp
2016-Feb-11 11:00N 56°24' W 005°30'0 0.0 1002.0 4.1 3.9
2016-Feb-11 07:00N 56°24' W 005°30'0 0.0 1001.1 0.7 0.5
2016-Feb-11 04:00N 56°24' W 005°30'0 0.0 1001.2 1.9 1.4
2016-Feb-11 01:00N 56°24' W 005°30'0 0.0 1000.8 2.7 1.9
2016-Feb-11 00:00N 56°24' W 005°30'0 0.0 1000.5 3.9 2.9
2016-Feb-10 20:00N 56°24' W 005°30'3 3.3 999.2 4.6 2.5
2016-Feb-10 19:00N 56°24' W 005°36'1212.5 999.0 4.9 2.2
2016-Feb-10 18:00N 56°12' W 005°42'9 9.0 998.7 5.5 2.8
2016-Feb-10 17:00N 56°06' W 005°54'7 6.9 998.2 6.9 3.2
2016-Feb-10 16:00N 56°00' W 006°00'1212.0 998.3 7.1 4.3
2016-Feb-10 15:00N 55°48' W 006°00'1212.5 998.2 5.7 3.0
2016-Feb-10 14:00N 55°36' W 005°54'45 7.5 997.8 6.8 3.6
2016-Feb-10 08:00N 55°00' W 005°06'0 0.0 995.0 5.9 2.1
2016-Feb-10 06:00N 55°00' W 005°06'0 0.0 993.5 6.0 2.5
2016-Feb-10 05:00N 55°00' W 005°06'0 0.0 993.3 6.2 3.1
2016-Feb-10 04:00N 55°00' W 005°06'0 0.0 992.1 6.3 3.2
2016-Feb-10 03:00N 55°00' W 005°06'0 0.0 991.5 6.4 3.8
2016-Feb-10 02:00N 55°00' W 005°06'0 0.0 990.5 6.6 4.2
2016-Feb-10 00:00N 55°00' W 005°06'3 3.4 988.6 6.8 4.8
2016-Feb-09 23:00N 55°00' W 005°12'6 6.0 987.6 7.4 5.2
2016-Feb-09 22:00N 54°54' W 005°12'6 6.0 985.9 7.6 5.6
2016-Feb-09 21:00N 54°48' W 005°12'7 6.9 984.7 7.9 5.9
2016-Feb-09 20:00N 54°42' W 005°06'7 6.9 983.9 7.7 5.8
2016-Feb-09 19:00N 54°36' W 005°00'7 7.0 983.0 7.6 5.2
2016-Feb-09 18:00N 54°36' W 004°48'1212.0 981.9 7.1 5.8
2016-Feb-09 17:00N 54°30' W 004°30'1212.1 981.3 6.1 4.3
2016-Feb-09 16:00N 54°24' W 004°12'7 6.9 980.6 6.1 3.8
2016-Feb-09 15:00N 54°18' W 004°06'9 9.2 980.5 5.7 3.0
2016-Feb-09 14:00N 54°24' W 004°18'3 3.5 980.4 5.3 3.1
2016-Feb-09 13:00N 54°24' W 004°24'1010.5 979.8 5.3 3.3
2016-Feb-09 12:00N 54°24' W 004°42'7 7.0 980.6 5.1 3.3
2016-Feb-09 11:00N 54°24' W 004°54'1010.5 980.5 5.5 3.4
2016-Feb-09 10:00N 54°24' W 005°12'1212.1 980.9 4.2 2.2
2016-Feb-09 09:00N 54°18' W 005°30'6 6.0 981.2 3.8 1.6
2016-Feb-09 08:00N 54°24' W 005°30'0 0.0 980.9 3.9 2.1
2016-Feb-09 07:00N 54°24' W 005°30'0 0.0 981.0 4.0 2.2
2016-Feb-09 06:00N 54°24' W 005°30'0 0.0 981.6 4.1 2.1
2016-Feb-09 05:00N 54°24' W 005°30'0 0.0 982.1 4.6 2.5
2016-Feb-09 04:00N 54°24' W 005°30'0 0.0 982.2 4.9 3.0
2016-Feb-09 03:00N 54°24' W 005°30'0 0.0 982.2 4.9 3.3
2016-Feb-09 02:00N 54°24' W 005°30'0 0.0 982.6 5.0 3.2
2016-Feb-09 01:00N 54°24' W 005°30'0 0.0 982.5 5.5 3.7
2016-Feb-09 00:00N 54°24' W 005°30'0 0.0 982.7 6.0 4.1
2016-Feb-08 23:00N 54°24' W 005°30'0 0.0 982.8 6.0 4.2
2016-Feb-08 22:00N 54°24' W 005°30'0 0.0 982.8 6.0 4.1
2016-Feb-08 21:00N 54°24' W 005°30'7 1.7 982.6 6.3 4.6
2016-Feb-08 17:00N 54°30' W 005°24'7 6.9 979.8 7.5 6.0
2016-Feb-08 16:00N 54°36' W 005°30'7 6.9 978.2 8.0 7.0
2016-Feb-08 15:00N 54°42' W 005°36'3 3.5 977.0 7.9 7.0
2016-Feb-08 14:00N 54°42' W 005°42'1212.0 974.9 7.4 6.5
2016-Feb-08 13:00N 54°54' W 005°42'7 6.9 973.6 8.4 6.6
2016-Feb-08 12:00N 55°00' W 005°48'1212.0 971.8 8.3 7.0
2016-Feb-08 11:00N 55°12' W 005°48'7 6.9 969.9 7.9 6.8
2016-Feb-08 10:00N 55°18' W 005°54'1212.0 968.0 6.1 6.0
2016-Feb-08 09:00N 55°30' W 005°54'1212.5 965.5 6.7 6.7
2016-Feb-08 08:00N 55°42' W 006°00'0 0.0 964.7 5.7 5.6
2016-Feb-08 07:00N 55°42' W 006°00'0 0.0 964.0 5.7 5.7
2016-Feb-08 06:00N 55°42' W 006°00'0 0.0 963.8 5.6 5.4
2016-Feb-08 05:00N 55°42' W 006°00'0 0.0 963.8 5.7 5.3
2016-Feb-08 04:00N 55°42' W 006°00'0 0.0 964.0 5.5 5.1
2016-Feb-08 03:00N 55°42' W 006°00'0 0.0 964.6 5.7 5.0
2016-Feb-08 02:00N 55°42' W 006°00'0 0.0 965.2 5.6 4.8
2016-Feb-08 01:00N 55°42' W 006°00'0 0.0 966.2 5.7 5.0
2016-Feb-08 00:00N 55°42' W 006°00'0 0.0 966.1 5.9 5.1
2016-Feb-07 23:00N 55°42' W 006°00'0 0.0 966.3 6.3 4.9
2016-Feb-07 22:00N 55°42' W 006°00'0 0.0 966.1 7.0 5.7
2016-Feb-07 21:00N 55°42' W 006°00'0 0.0 967.1 6.0 5.6
2016-Feb-07 20:00N 55°42' W 006°00'0 0.0 967.6 5.6 5.5
2016-Feb-07 19:00N 55°42' W 006°00'0 0.0 968.7 5.0 5.0
2016-Feb-07 18:00N 55°42' W 006°00'0 0.0 970.5 5.0 5.0
2016-Feb-07 17:00N 55°42' W 006°00'0 0.0 972.4 5.2 4.5
2016-Feb-07 16:00N 55°42' W 006°00'0 0.0 973.8 6.0 4.6
2016-Feb-07 15:00N 55°42' W 006°00'0 0.0 974.0 6.8 4.9
2016-Feb-07 14:00N 55°42' W 006°00'0 0.0 974.2 7.2 5.7
2016-Feb-07 13:00N 55°42' W 006°00'0 0.0 972.1 7.8 5.8
2016-Feb-07 12:00N 55°42' W 006°00'0 0.0 971.5 6.4 6.4
2016-Feb-07 11:00N 55°42' W 006°00'0 0.0 970.8 7.3 7.2
2016-Feb-07 10:00N 55°42' W 006°00'0 0.0 970.0 6.3 6.3
2016-Feb-07 09:00N 55°42' W 006°00'0 0.0 969.5 5.2 5.2
2016-Feb-07 08:00N 55°42' W 006°00'0 0.0 969.9 4.7 4.6
2016-Feb-07 07:00N 55°42' W 006°00'0 0.0 970.5 4.4 3.8
2016-Feb-07 06:00N 55°42' W 006°00'0 0.0 971.3 5.4 3.6
2016-Feb-07 05:00N 55°42' W 006°00'0 0.0 971.9 5.7 3.6
2016-Feb-07 04:00N 55°42' W 006°00'0 0.0 971.7 5.7 3.5
2016-Feb-07 03:00N 55°42' W 006°00'0 0.0 972.2 5.8 3.8
2016-Feb-07 02:00N 55°42' W 006°00'0 0.0 972.3 5.8 3.7
2016-Feb-07 01:00N 55°42' W 006°00'0 0.0 972.8 5.7 3.5
2016-Feb-07 00:00N 55°42' W 006°00'0 0.0 972.1 5.7 3.3
2016-Feb-06 23:00N 55°42' W 006°00'0 0.0 972.7 5.9 3.5
2016-Feb-06 22:00N 55°42' W 006°00'0 0.0 972.5 6.3 3.8
2016-Feb-06 21:00N 55°42' W 006°00'7 6.9 971.4 6.5 4.1
2016-Feb-06 20:00N 55°48' W 006°06'1212.0 970.7 7.1 4.3
2016-Feb-06 19:00N 56°00' W 006°06'9 9.0 969.5 7.3 4.9
2016-Feb-06 18:00N 56°06' W 005°54'1413.7 969.9 7.6 7.0
2016-Feb-06 17:00N 56°18' W 005°42'9 2.2 972.0 6.5 5.3
2016-Feb-06 13:00N 56°24' W 005°30'0 0.0 981.6 5.4 4.1
2016-Feb-06 12:00N 56°24' W 005°30'0 0.0 983.9 5.4 4.0
2016-Feb-06 11:00N 56°24' W 005°30'0 0.0 985.6 5.3 3.9
2016-Feb-06 10:00N 56°24' W 005°30'0 0.0 987.3 5.7 4.1
2016-Feb-06 09:00N 56°24' W 005°30'0 0.0 988.4 5.5 3.8
2016-Feb-06 08:00N 56°24' W 005°30'0 0.0 990.1 5.6 4.2
2016-Feb-06 07:00N 56°24' W 005°30'0 0.0 991.3 5.2 4.2
2016-Feb-06 06:00N 56°24' W 005°30'0 0.0 992.3 4.9 4.1
2016-Feb-05 13:00N 56°24' W 005°30'0 0.0 1001.2 6.3 6.1
2016-Feb-05 11:00N 56°24' W 005°30'0 0.0 1001.1 8.6 8.3
2016-Feb-05 10:00N 56°24' W 005°30'0 0.0 1001.6 8.6 8.2
2016-Feb-05 08:00N 56°24' W 005°30'0 0.0 1003.4 9.3 8.5
2016-Feb-05 03:00N 56°24' W 005°30'0 0.0 1009.9 8.8 8.8
2016-Feb-05 02:00N 56°24' W 005°30'0 0.0 1011.1 9.0 9.0
2016-Feb-05 01:00N 56°24' W 005°30'0 0.0 1012.3 8.9 8.9
2016-Feb-04 23:00N 56°24' W 005°30'0 0.0 1014.3 9.1 9.1
2016-Feb-04 21:00N 56°24' W 005°30'0 0.0 1015.7 9.3 9.3
2016-Feb-04 19:00N 56°24' W 005°30'0 0.0 1016.8 9.5 9.5
2016-Feb-04 17:00N 56°24' W 005°30'0 0.0 1017.6 9.3 9.3
2016-Feb-04 14:00N 56°24' W 005°30'   1018.8 8.1 7.8
Track history (hours):
 
Tides and Currents Weather Stations Pressure Air Temp Water Temp Dewpoint Dewpoint Depression Visibility Wind Speed Wind Dir Waves Ship Positions

Callsign AMOUK35 (name unknown)

Last reported at 2016-Feb-11 11:00 UTC. Time now 2016-Feb-11 13:02 UTC.
Position N 56°24' W 005°30'.

Barometer 1002.0 mb
Air temperature 4.1 ° C
Dewpoint 3.9 ° C

Date/timePositionNaut miles runAvg speedWind from/ knotsBaromVisibWave heightAir tempDewpointWater temp
2016-Feb-11 11:00N 56°24' W 005°30'0 0.0 1002.0 4.1 3.9
2016-Feb-11 07:00N 56°24' W 005°30'0 0.0 1001.1 0.7 0.5
2016-Feb-11 04:00N 56°24' W 005°30'0 0.0 1001.2 1.9 1.4
2016-Feb-11 01:00N 56°24' W 005°30'0 0.0 1000.8 2.7 1.9
2016-Feb-11 00:00N 56°24' W 005°30'0 0.0 1000.5 3.9 2.9
2016-Feb-10 20:00N 56°24' W 005°30'3 3.3 999.2 4.6 2.5
2016-Feb-10 19:00N 56°24' W 005°36'1212.5 999.0 4.9 2.2
2016-Feb-10 18:00N 56°12' W 005°42'9 9.0 998.7 5.5 2.8
2016-Feb-10 17:00N 56°06' W 005°54'7 6.9 998.2 6.9 3.2
2016-Feb-10 16:00N 56°00' W 006°00'1212.0 998.3 7.1 4.3
2016-Feb-10 15:00N 55°48' W 006°00'1212.5 998.2 5.7 3.0
2016-Feb-10 14:00N 55°36' W 005°54'45 7.5 997.8 6.8 3.6
2016-Feb-10 08:00N 55°00' W 005°06'0 0.0 995.0 5.9 2.1
2016-Feb-10 06:00N 55°00' W 005°06'0 0.0 993.5 6.0 2.5
2016-Feb-10 05:00N 55°00' W 005°06'0 0.0 993.3 6.2 3.1
2016-Feb-10 04:00N 55°00' W 005°06'0 0.0 992.1 6.3 3.2
2016-Feb-10 03:00N 55°00' W 005°06'0 0.0 991.5 6.4 3.8
2016-Feb-10 02:00N 55°00' W 005°06'0 0.0 990.5 6.6 4.2
2016-Feb-10 00:00N 55°00' W 005°06'3 3.4 988.6 6.8 4.8
2016-Feb-09 23:00N 55°00' W 005°12'6 6.0 987.6 7.4 5.2
2016-Feb-09 22:00N 54°54' W 005°12'6 6.0 985.9 7.6 5.6
2016-Feb-09 21:00N 54°48' W 005°12'7 6.9 984.7 7.9 5.9
2016-Feb-09 20:00N 54°42' W 005°06'7 6.9 983.9 7.7 5.8
2016-Feb-09 19:00N 54°36' W 005°00'7 7.0 983.0 7.6 5.2
2016-Feb-09 18:00N 54°36' W 004°48'1212.0 981.9 7.1 5.8
2016-Feb-09 17:00N 54°30' W 004°30'1212.1 981.3 6.1 4.3
2016-Feb-09 16:00N 54°24' W 004°12'7 6.9 980.6 6.1 3.8
2016-Feb-09 15:00N 54°18' W 004°06'9 9.2 980.5 5.7 3.0
2016-Feb-09 14:00N 54°24' W 004°18'3 3.5 980.4 5.3 3.1
2016-Feb-09 13:00N 54°24' W 004°24'1010.5 979.8 5.3 3.3
2016-Feb-09 12:00N 54°24' W 004°42'7 7.0 980.6 5.1 3.3
2016-Feb-09 11:00N 54°24' W 004°54'1010.5 980.5 5.5 3.4
2016-Feb-09 10:00N 54°24' W 005°12'1212.1 980.9 4.2 2.2
2016-Feb-09 09:00N 54°18' W 005°30'6 6.0 981.2 3.8 1.6
2016-Feb-09 08:00N 54°24' W 005°30'0 0.0 980.9 3.9 2.1
2016-Feb-09 07:00N 54°24' W 005°30'0 0.0 981.0 4.0 2.2
2016-Feb-09 06:00N 54°24' W 005°30'0 0.0 981.6 4.1 2.1
2016-Feb-09 05:00N 54°24' W 005°30'0 0.0 982.1 4.6 2.5
2016-Feb-09 04:00N 54°24' W 005°30'0 0.0 982.2 4.9 3.0
2016-Feb-09 03:00N 54°24' W 005°30'0 0.0 982.2 4.9 3.3
2016-Feb-09 02:00N 54°24' W 005°30'0 0.0 982.6 5.0 3.2
2016-Feb-09 01:00N 54°24' W 005°30'0 0.0 982.5 5.5 3.7
2016-Feb-09 00:00N 54°24' W 005°30'0 0.0 982.7 6.0 4.1
2016-Feb-08 23:00N 54°24' W 005°30'0 0.0 982.8 6.0 4.2
2016-Feb-08 22:00N 54°24' W 005°30'0 0.0 982.8 6.0 4.1
2016-Feb-08 21:00N 54°24' W 005°30'7 1.7 982.6 6.3 4.6
2016-Feb-08 17:00N 54°30' W 005°24'7 6.9 979.8 7.5 6.0
2016-Feb-08 16:00N 54°36' W 005°30'7 6.9 978.2 8.0 7.0
2016-Feb-08 15:00N 54°42' W 005°36'3 3.5 977.0 7.9 7.0
2016-Feb-08 14:00N 54°42' W 005°42'1212.0 974.9 7.4 6.5
2016-Feb-08 13:00N 54°54' W 005°42'7 6.9 973.6 8.4 6.6
2016-Feb-08 12:00N 55°00' W 005°48'1212.0 971.8 8.3 7.0
2016-Feb-08 11:00N 55°12' W 005°48'7 6.9 969.9 7.9 6.8
2016-Feb-08 10:00N 55°18' W 005°54'1212.0 968.0 6.1 6.0
2016-Feb-08 09:00N 55°30' W 005°54'1212.5 965.5 6.7 6.7
2016-Feb-08 08:00N 55°42' W 006°00'0 0.0 964.7 5.7 5.6
2016-Feb-08 07:00N 55°42' W 006°00'0 0.0 964.0 5.7 5.7
2016-Feb-08 06:00N 55°42' W 006°00'0 0.0 963.8 5.6 5.4
2016-Feb-08 05:00N 55°42' W 006°00'0 0.0 963.8 5.7 5.3
2016-Feb-08 04:00N 55°42' W 006°00'0 0.0 964.0 5.5 5.1
2016-Feb-08 03:00N 55°42' W 006°00'0 0.0 964.6 5.7 5.0
2016-Feb-08 02:00N 55°42' W 006°00'0 0.0 965.2 5.6 4.8
2016-Feb-08 01:00N 55°42' W 006°00'0 0.0 966.2 5.7 5.0
2016-Feb-08 00:00N 55°42' W 006°00'0 0.0 966.1 5.9 5.1
2016-Feb-07 23:00N 55°42' W 006°00'0 0.0 966.3 6.3 4.9
2016-Feb-07 22:00N 55°42' W 006°00'0 0.0 966.1 7.0 5.7
2016-Feb-07 21:00N 55°42' W 006°00'0 0.0 967.1 6.0 5.6
2016-Feb-07 20:00N 55°42' W 006°00'0 0.0 967.6 5.6 5.5
2016-Feb-07 19:00N 55°42' W 006°00'0 0.0 968.7 5.0 5.0
2016-Feb-07 18:00N 55°42' W 006°00'0 0.0 970.5 5.0 5.0
2016-Feb-07 17:00N 55°42' W 006°00'0 0.0 972.4 5.2 4.5
2016-Feb-07 16:00N 55°42' W 006°00'0 0.0 973.8 6.0 4.6
2016-Feb-07 15:00N 55°42' W 006°00'0 0.0 974.0 6.8 4.9
2016-Feb-07 14:00N 55°42' W 006°00'0 0.0 974.2 7.2 5.7
2016-Feb-07 13:00N 55°42' W 006°00'0 0.0 972.1 7.8 5.8
2016-Feb-07 12:00N 55°42' W 006°00'0 0.0 971.5 6.4 6.4
2016-Feb-07 11:00N 55°42' W 006°00'0 0.0 970.8 7.3 7.2
2016-Feb-07 10:00N 55°42' W 006°00'0 0.0 970.0 6.3 6.3
2016-Feb-07 09:00N 55°42' W 006°00'0 0.0 969.5 5.2 5.2
2016-Feb-07 08:00N 55°42' W 006°00'0 0.0 969.9 4.7 4.6
2016-Feb-07 07:00N 55°42' W 006°00'0 0.0 970.5 4.4 3.8
2016-Feb-07 06:00N 55°42' W 006°00'0 0.0 971.3 5.4 3.6
2016-Feb-07 05:00N 55°42' W 006°00'0 0.0 971.9 5.7 3.6
2016-Feb-07 04:00N 55°42' W 006°00'0 0.0 971.7 5.7 3.5
2016-Feb-07 03:00N 55°42' W 006°00'0 0.0 972.2 5.8 3.8
2016-Feb-07 02:00N 55°42' W 006°00'0 0.0 972.3 5.8 3.7
2016-Feb-07 01:00N 55°42' W 006°00'0 0.0 972.8 5.7 3.5
2016-Feb-07 00:00N 55°42' W 006°00'0 0.0 972.1 5.7 3.3
2016-Feb-06 23:00N 55°42' W 006°00'0 0.0 972.7 5.9 3.5
2016-Feb-06 22:00N 55°42' W 006°00'0 0.0 972.5 6.3 3.8
2016-Feb-06 21:00N 55°42' W 006°00'7 6.9 971.4 6.5 4.1
2016-Feb-06 20:00N 55°48' W 006°06'1212.0 970.7 7.1 4.3
2016-Feb-06 19:00N 56°00' W 006°06'9 9.0 969.5 7.3 4.9
2016-Feb-06 18:00N 56°06' W 005°54'1413.7 969.9 7.6 7.0
2016-Feb-06 17:00N 56°18' W 005°42'9 2.2 972.0 6.5 5.3
2016-Feb-06 13:00N 56°24' W 005°30'0 0.0 981.6 5.4 4.1
2016-Feb-06 12:00N 56°24' W 005°30'0 0.0 983.9 5.4 4.0
2016-Feb-06 11:00N 56°24' W 005°30'0 0.0 985.6 5.3 3.9
2016-Feb-06 10:00N 56°24' W 005°30'0 0.0 987.3 5.7 4.1
2016-Feb-06 09:00N 56°24' W 005°30'0 0.0 988.4 5.5 3.8
2016-Feb-06 08:00N 56°24' W 005°30'0 0.0 990.1 5.6 4.2
2016-Feb-06 07:00N 56°24' W 005°30'0 0.0 991.3 5.2 4.2
2016-Feb-06 06:00N 56°24' W 005°30'0 0.0 992.3 4.9 4.1
2016-Feb-05 13:00N 56°24' W 005°30'0 0.0 1001.2 6.3 6.1
2016-Feb-05 11:00N 56°24' W 005°30'0 0.0 1001.1 8.6 8.3
2016-Feb-05 10:00N 56°24' W 005°30'0 0.0 1001.6 8.6 8.2
2016-Feb-05 08:00N 56°24' W 005°30'0 0.0 1003.4 9.3 8.5
2016-Feb-05 03:00N 56°24' W 005°30'0 0.0 1009.9 8.8 8.8
2016-Feb-05 02:00N 56°24' W 005°30'0 0.0 1011.1 9.0 9.0
2016-Feb-05 01:00N 56°24' W 005°30'0 0.0 1012.3 8.9 8.9
2016-Feb-04 23:00N 56°24' W 005°30'0 0.0 1014.3 9.1 9.1
2016-Feb-04 21:00N 56°24' W 005°30'0 0.0 1015.7 9.3 9.3
2016-Feb-04 19:00N 56°24' W 005°30'0 0.0 1016.8 9.5 9.5
2016-Feb-04 17:00N 56°24' W 005°30'0 0.0 1017.6 9.3 9.3
2016-Feb-04 14:00N 56°24' W 005°30'   1018.8 8.1 7.8

Dump ship's entire track history